Flight Track Log - Related Links

Times and Time Zones

All times are in EDT time to prevent confusion due to time zone crossing. See the SKW5579 flight status page for this flight to view local times or setup timezone preferences in your user account.

Time Position Orientation Groundspeed Altitude Reporting Facility
EDT Latitude Longitude Course Direction KTS MPH feet Rate Location/Type
Mon 10:46:54 AM 37.6333 -122.3667 208° Southwest 142 163 1,200  Level Northern Cal TRACON
Mon 10:47:54 AM 37.6833 -122.3833 345° North 167 192 2,600 1,450 Climbing Northern Cal TRACON
Mon 10:48:54 AM 37.6333 -122.4167 208° Southwest 195 224 4,100 1,650 Climbing Northern Cal TRACON
Mon 10:49:54 AM 37.5833 -122.4333 195° South 187 215 5,900 1,590 Climbing Northern Cal TRACON
Mon 10:50:17 AM 37.5742 -122.4283 157° South 188 216 6,300 1,286 Climbing Oakland Center
Mon 10:51:00 AM 37.3789 -122.5022 202° Southwest  Level FlightAware Approximate
Mon 10:51:18 AM 37.5233 -122.4294 181° South 183 211 7,700  Level Oakland Center
Mon 10:52:00 AM 37.3175 -122.5383 208° Southwest  Level FlightAware Approximate
Mon 10:52:19 AM 37.4703 -122.4314 182° South 189 217 9,100  Level Oakland Center
Mon 10:53:21 AM 37.4189 -122.4325 181° South 185 213 10,700 1,463 Climbing Oakland Center
Mon 10:54:22 AM 37.3586 -122.4333 181° South 180 207 12,100 1,131 Climbing Oakland Center
Mon 10:55:23 AM 37.3064 -122.4364 183° South 187 215 13,000 836 Climbing Oakland Center
Mon 10:56:24 AM 37.2472 -122.4389 182° South 208 239 13,800 885 Climbing Oakland Center
Mon 10:57:25 AM 37.1858 -122.4411 182° South 218 251 14,800 984 Climbing Oakland Center
Mon 10:58:26 AM 37.1256 -122.4447 183° South 219 252 15,800 1,024 Climbing Oakland Center
Mon 10:59:28 AM 37.0697 -122.4203 161° South 222 255 16,900 927 Climbing Oakland Center
Mon 11:00:29 AM 37.0203 -122.3767 145° Southeast 221 254 17,700 836 Climbing Oakland Center
Mon 11:01:30 AM 36.9706 -122.3331 145° Southeast 218 251 18,600 836 Climbing Oakland Center
Mon 11:02:31 AM 36.9206 -122.2906 146° Southeast 218 251 19,400 738 Climbing Oakland Center
Mon 11:03:32 AM 36.8706 -122.2447 144° Southeast 221 254 20,100 738 Climbing Oakland Center
Mon 11:04:33 AM 36.8192 -122.2008 146° Southeast 224 258 20,900 878 Climbing Oakland Center
Mon 11:05:35 AM 36.7603 -122.1478 144° Southeast 219 252 21,900 732 Climbing Oakland Center
Mon 11:06:36 AM 36.7108 -122.1031 144° Southeast 220 253 22,400 492 Climbing Oakland Center
Mon 11:07:37 AM 36.6586 -122.0592 146° Southeast 224 258 22,900 295 Climbing Oakland Center
Mon 11:08:38 AM 36.6039 -122.0117 145° Southeast 235 270 23,000 49 Climbing Oakland Center
Mon 11:09:39 AM 36.5481 -121.9578 142° Southeast 250 288 23,000  Level Oakland Center
Mon 11:10:40 AM 36.4931 -121.9039 142° Southeast 252 290 23,000  Level Oakland Center
Mon 11:11:42 AM 36.4383 -121.8508 142° Southeast 251 289 23,000  Level Oakland Center
Mon 11:12:43 AM 36.3764 -121.7917 142° Southeast 252 290 23,000  Level Oakland Center
Mon 11:13:44 AM 36.3217 -121.7403 143° Southeast 249 287 23,000  Level Oakland Center
Mon 11:14:45 AM 36.2667 -121.6892 143° Southeast 247 284 23,000  Level Oakland Center
Mon 11:15:47 AM 36.2119 -121.6381 143° Southeast 246 283 23,000  Level Oakland Center
Mon 11:16:48 AM 36.1581 -121.5853 142° Southeast 248 285 23,000  Level Oakland Center
Mon 11:17:49 AM 36.1042 -121.5347 143° Southeast 245 282 23,000  Level Oakland Center
Mon 11:18:50 AM 36.0494 -121.4847 144° Southeast 245 282 23,000  Level Oakland Center
Mon 11:19:52 AM 35.9953 -121.4339 143° Southeast 245 282 23,000  Level Oakland Center
Mon 11:20:53 AM 35.9308 -121.3711 142° Southeast 246 283 23,000  Level Oakland Center
Mon 11:21:54 AM 35.8761 -121.3211 143° Southeast 246 283 23,000  Level Oakland Center
Mon 11:22:55 AM 35.8214 -121.2683 142° Southeast 248 285 23,000  Level Oakland Center
Mon 11:23:57 AM 35.7664 -121.2175 143° Southeast 248 285 23,000  Level Oakland Center
Mon 11:24:58 AM 35.7114 -121.1683 144° Southeast 246 283 23,000  Level Oakland Center
Mon 11:25:59 AM 35.6575 -121.1167 142° Southeast 246 283 23,000  Level Oakland Center
Mon 11:27:01 AM 35.6028 -121.0672 144° Southeast 246 283 23,000  Level Oakland Center
Mon 11:28:02 AM 35.5506 -121.0186 143° Southeast 240 276 23,000  Level Oakland Center
Mon 11:29:03 AM 35.4886 -120.9617 143° Southeast 235 270 23,000  Level Oakland Center
Mon 11:30:05 AM 35.4383 -120.9150 143° Southeast 229 264 23,000  Level Oakland Center
Mon 11:31:06 AM 35.3861 -120.8683 144° Southeast 232 267 23,000  Level Oakland Center
Mon 11:32:07 AM 35.3361 -120.8211 142° Southeast 230 265 23,000  Level Oakland Center
Mon 11:32:28 AM 35.3247 -120.8117 146° Southeast 229 264 23,000  Level Los Angeles Center
Mon 11:33:30 AM 35.2639 -120.7558 143° Southeast 228 262 23,000  Level Los Angeles Center
Mon 11:34:32 AM 35.2128 -120.7089 143° Southeast 229 264 23,000  Level Los Angeles Center
Mon 11:35:34 AM 35.1614 -120.6619 143° Southeast 230 265 23,000  Level Los Angeles Center
Mon 11:36:36 AM 35.1108 -120.6153 143° Southeast 229 264 23,000  Level Los Angeles Center
Mon 11:37:38 AM 35.0586 -120.5686 144° Southeast 231 266 23,000 -339 Level Los Angeles Center
Mon 11:38:40 AM 35.0069 -120.5208 143° Southeast 232 267 22,300 -1,161 Descending Los Angeles Center
Mon 11:39:42 AM 34.9456 -120.4656 144° Southeast 263 303 20,600 -1,839 Descending Los Angeles Center
Mon 11:40:44 AM 34.8742 -120.4019 144° Southeast 263 303 18,500 -1,935 Descending Los Angeles Center
Mon 11:41:46 AM 34.8194 -120.3511 143° Southeast 248 285 16,600 -1,880 Descending Los Angeles Center
Mon 11:42:07 AM 34.7972 -120.3325 145° Southeast 244 281 15,900 -1,742 Descending Los Angeles Center
Mon 11:42:48 AM 34.7661 -120.3028 142° Southeast 240 276 14,800 -1,761 Descending Los Angeles Center
Mon 11:43:56 AM 34.7003 -120.2433 143° Southeast 235 270 12,700 -1,862 Descending Los Angeles Center
Mon 11:44:44 AM 34.6597 -120.2067 143° Southeast 229 264 11,200 -1,774 Descending Los Angeles Center
Mon 11:45:51 AM 34.6075 -120.1553 141° Southeast 228 262 9,300 -1,828 Descending Los Angeles Center
Mon 11:46:52 AM 34.5497 -120.1086 146° Southeast 234 269 7,300 -1,884 Descending Los Angeles Center
Mon 11:47:52 AM 34.4917 -120.0700 151° Southeast 237 273 5,500 -1,559 Descending Los Angeles Center
Mon 11:48:59 AM 34.4314 -120.0319 152° Southeast 233 268 4,000 -787 Descending Los Angeles Center
Mon 11:49:54 AM 34.3814 -119.9906 146° Southeast 226 260 3,900 -50 Descending Los Angeles Center
Mon 11:51:00 AM 34.3567 -119.9178 112° Southeast 214 246 3,900 -283 Level Los Angeles Center
Mon 11:52:01 AM 34.3425 -119.8547 105° East 205 236 3,300 -942 Descending Los Angeles Center
Mon 11:53:01 AM 34.3386 -119.7881 94° East 197 227 2,000 -887 Descending Los Angeles Center
Mon 11:53:56 AM 34.3792 -119.7856 North 170 196 1,600 -436 Descending Los Angeles Center

Login

Don't have an account? Register now (free) for customized features, flight alerts, and more!